createdAt,value
2023-03-10T00:00:59.172Z,0.39
2023-03-10T00:03:28.507Z,0.38
2023-03-10T00:05:57.920Z,0.19
2023-03-10T00:08:27.274Z,0.35
2023-03-10T00:10:55.538Z,0.34
2023-03-10T00:13:23.460Z,0.40
2023-03-10T00:15:52.157Z,0.34
2023-03-10T00:18:22.624Z,0.31
2023-03-10T00:20:53.255Z,0.37
2023-03-10T00:23:23.810Z,0.29
2023-03-10T00:25:59.251Z,0.37
2023-03-10T00:28:28.695Z,0.36
2023-03-10T00:31:02.290Z,0.39
2023-03-10T00:33:32.025Z,0.37
2023-03-10T00:36:11.309Z,0.39
2023-03-10T00:38:42.503Z,0.30
2023-03-10T00:41:13.853Z,0.35
2023-03-10T00:43:42.238Z,0.36
2023-03-10T00:46:10.326Z,0.36
2023-03-10T00:48:38.599Z,0.36
2023-03-10T00:51:08.162Z,0.40
2023-03-10T00:53:37.939Z,0.36
2023-03-10T00:56:12.840Z,0.35
2023-03-10T00:58:41.630Z,0.35
2023-03-10T01:01:15.665Z,0.42
2023-03-10T01:03:44.079Z,0.38
2023-03-10T01:06:13.968Z,0.39
2023-03-10T01:08:42.049Z,0.22
2023-03-10T01:11:14.385Z,0.40
2023-03-10T01:13:42.768Z,0.36
2023-03-10T01:16:11.562Z,0.32
2023-03-10T01:18:39.987Z,0.34
2023-03-10T01:21:08.849Z,0.44
2023-03-10T01:23:36.844Z,0.29
2023-03-10T01:26:07.080Z,0.38
2023-03-10T01:28:36.484Z,0.45
2023-03-10T01:31:05.508Z,0.41
2023-03-10T01:33:34.002Z,0.45
2023-03-10T01:36:02.093Z,0.40
2023-03-10T01:38:29.903Z,0.41
2023-03-10T01:41:03.058Z,0.43
2023-03-10T01:43:33.930Z,0.44
2023-03-10T01:46:35.198Z,0.41
2023-03-10T01:49:06.974Z,0.38
2023-03-10T01:51:37.243Z,0.31
2023-03-10T01:54:10.948Z,0.38
2023-03-10T01:56:58.509Z,0.43
2023-03-10T01:59:52.737Z,0.47
2023-03-10T02:02:42.275Z,0.46
2023-03-10T02:05:13.217Z,0.47
2023-03-10T02:07:47.524Z,0.45
2023-03-10T02:10:19.146Z,0.38
2023-03-10T02:12:47.217Z,0.45
2023-03-10T02:15:15.330Z,0.45
2023-03-10T02:17:44.960Z,0.40
2023-03-10T02:20:27.706Z,0.41
2023-03-10T02:22:55.946Z,0.45
2023-03-10T02:25:33.387Z,0.33
2023-03-10T02:28:11.476Z,0.40
2023-03-10T02:30:56.052Z,0.30
2023-03-10T02:33:33.199Z,0.39
2023-03-10T02:36:06.191Z,0.35
2023-03-10T02:38:35.089Z,0.36
2023-03-10T02:41:17.307Z,0.35
2023-03-10T02:43:55.834Z,0.34
2023-03-10T02:46:24.625Z,0.33
2023-03-10T02:48:52.771Z,0.33
2023-03-10T02:51:24.633Z,0.29
2023-03-10T02:53:54.735Z,0.19
2023-03-10T02:56:22.922Z,0.19
2023-03-10T02:58:59.449Z,0.27
2023-03-10T03:01:27.935Z,0.26
2023-03-10T03:03:55.943Z,0.25
2023-03-10T03:06:24.314Z,0.16
2023-03-10T03:08:52.379Z,0.20
2023-03-10T03:11:20.402Z,0.24
2023-03-10T03:13:48.472Z,0.23
2023-03-10T03:16:18.240Z,0.22
2023-03-10T03:18:46.210Z,0.14
2023-03-10T03:21:17.731Z,0.26
2023-03-10T03:23:46.821Z,0.24
2023-03-10T03:26:19.677Z,0.23
2023-03-10T03:28:48.170Z,0.15
2023-03-10T03:31:25.260Z,0.23
2023-03-10T03:33:53.458Z,0.24
2023-03-10T03:36:21.625Z,0.23
2023-03-10T03:38:51.038Z,0.23
2023-03-10T03:41:19.044Z,0.22
2023-03-10T03:43:46.922Z,0.23
2023-03-10T03:46:14.904Z,0.24
2023-03-10T03:48:44.342Z,0.21
2023-03-10T03:51:12.559Z,0.23
2023-03-10T03:53:40.594Z,0.20
2023-03-10T03:56:09.043Z,0.21
2023-03-10T03:58:37.505Z,0.17
2023-03-10T04:01:05.996Z,0.24
2023-03-10T04:03:34.374Z,0.18
2023-03-10T04:06:04.382Z,0.23
2023-03-10T04:08:32.276Z,0.23
2023-03-10T04:11:00.696Z,0.12
2023-03-10T04:13:30.782Z,0.14
2023-03-10T04:15:59.738Z,0.12
2023-03-10T04:18:28.081Z,0.23
2023-03-10T04:20:56.000Z,0.15
2023-03-10T04:23:25.698Z,0.18
2023-03-10T04:25:54.035Z,0.22
2023-03-10T04:28:22.172Z,0.24
2023-03-10T04:30:50.657Z,0.06
2023-03-10T04:33:22.229Z,0.19
2023-03-10T04:35:51.634Z,0.21
2023-03-10T04:38:20.688Z,0.20
2023-03-10T04:40:55.881Z,0.19
2023-03-10T04:43:23.965Z,0.08
2023-03-10T04:45:52.418Z,0.09
2023-03-10T04:48:20.854Z,0.17
2023-03-10T04:50:56.672Z,0.17
2023-03-10T04:53:25.865Z,0.07
2023-03-10T04:55:55.312Z,0.08
2023-03-10T04:58:24.687Z,0.16
2023-03-10T05:01:02.804Z,0.07
2023-03-10T05:03:32.559Z,0.06
2023-03-10T05:06:00.693Z,0.06
2023-03-10T05:08:31.062Z,0.14
2023-03-10T05:11:00.524Z,0.14
2023-03-10T05:13:31.789Z,0.08
2023-03-10T05:16:00.354Z,0.13
2023-03-10T05:18:29.444Z,-0.03
2023-03-10T05:20:58.854Z,0.16
2023-03-10T05:23:27.259Z,0.07
2023-03-10T05:25:55.314Z,0.05
2023-03-10T05:28:25.138Z,0.11
2023-03-10T05:30:53.326Z,0.02
2023-03-10T05:33:22.542Z,0.08
2023-03-10T05:35:50.883Z,-0.01
2023-03-10T05:38:25.012Z,0.10
2023-03-10T05:40:53.090Z,0.11
2023-03-10T05:43:21.213Z,0.11
2023-03-10T05:45:58.622Z,0.13
2023-03-10T05:48:32.514Z,0.00
2023-03-10T05:51:02.850Z,0.13
2023-03-10T05:53:32.390Z,0.12
2023-03-10T05:56:03.160Z,0.12
2023-03-10T05:58:32.356Z,0.14
2023-03-10T06:01:02.260Z,0.12
2023-03-10T06:03:30.717Z,0.16
2023-03-10T06:05:59.228Z,0.13
2023-03-10T06:08:28.963Z,0.14
2023-03-10T06:11:05.055Z,0.14
2023-03-10T06:13:33.470Z,0.14
2023-03-10T06:16:04.938Z,0.13
2023-03-10T06:18:36.266Z,0.18
2023-03-10T06:21:07.801Z,0.04
2023-03-10T06:23:36.410Z,0.20
2023-03-10T06:26:19.040Z,0.20
2023-03-10T06:28:54.423Z,0.19
2023-03-10T06:31:28.846Z,0.21
2023-03-10T06:33:57.732Z,0.21
2023-03-10T06:36:43.488Z,0.22
2023-03-10T06:39:47.514Z,0.23
2023-03-10T06:42:20.582Z,0.25
2023-03-10T06:44:49.328Z,0.13
2023-03-10T06:47:23.668Z,0.18
2023-03-10T06:49:58.662Z,0.13
2023-03-10T06:52:28.592Z,0.22
2023-03-10T06:55:03.474Z,0.11
2023-03-10T06:57:33.482Z,0.31
2023-03-10T07:00:25.600Z,0.29
2023-03-10T07:03:25.575Z,0.32
2023-03-10T07:05:55.353Z,0.20
2023-03-10T07:08:24.525Z,0.15
2023-03-10T07:10:52.833Z,0.33
2023-03-10T07:13:25.378Z,0.27
2023-03-10T07:15:55.090Z,0.29
2023-03-10T07:18:28.478Z,0.41
2023-03-10T07:20:58.447Z,0.37
2023-03-10T07:23:31.769Z,0.51
2023-03-10T07:26:02.702Z,0.55
2023-03-10T07:31:24.239Z,0.39
2023-03-10T07:33:54.176Z,0.52
2023-03-10T07:36:26.192Z,0.37
2023-03-10T07:39:01.051Z,0.52
2023-03-10T07:41:34.032Z,0.38
2023-03-10T07:44:02.279Z,0.38
2023-03-10T07:46:30.502Z,0.45
2023-03-10T07:49:04.263Z,0.34
2023-03-10T07:51:33.688Z,0.42
2023-03-10T07:54:12.483Z,0.41
2023-03-10T07:56:40.860Z,0.23
2023-03-10T07:59:09.342Z,0.37
2023-03-10T08:01:37.681Z,0.34
2023-03-10T08:04:09.558Z,0.56
2023-03-10T08:07:03.599Z,0.59
2023-03-10T08:09:42.648Z,0.46
2023-03-10T08:12:15.642Z,0.58
2023-03-10T08:14:45.024Z,0.64
2023-03-10T08:17:13.188Z,0.64
2023-03-10T08:19:53.394Z,0.57
2023-03-10T08:22:22.903Z,0.46
2023-03-10T08:24:53.388Z,0.50
2023-03-10T08:27:23.097Z,0.65
2023-03-10T08:29:54.451Z,0.46
2023-03-10T08:32:24.882Z,0.41
2023-03-10T08:34:57.813Z,0.52
2023-03-10T08:37:33.990Z,0.67
2023-03-10T08:40:14.644Z,0.65
2023-03-10T08:42:48.290Z,0.64
2023-03-10T08:45:25.170Z,0.58
2023-03-10T08:47:54.576Z,0.73
2023-03-10T08:50:24.815Z,0.57
2023-03-10T08:53:01.283Z,0.69
2023-03-10T08:55:32.521Z,0.55
2023-03-10T08:58:09.504Z,0.63
2023-03-10T09:00:38.009Z,0.46
2023-03-10T09:03:15.076Z,0.70
2023-03-10T09:05:49.077Z,0.69
2023-03-10T09:08:20.870Z,0.45
2023-03-10T09:10:52.381Z,0.67
2023-03-10T09:13:22.925Z,0.62
2023-03-10T09:15:53.874Z,0.65
2023-03-10T09:18:27.290Z,0.62
2023-03-10T09:20:57.699Z,0.82
2023-03-10T09:23:37.401Z,0.73
2023-03-10T09:26:08.254Z,0.80
2023-03-10T09:28:43.288Z,0.68
2023-03-10T09:31:32.901Z,0.71
2023-03-10T09:34:01.958Z,0.73
2023-03-10T09:37:08.188Z,0.53
2023-03-10T09:42:44.476Z,0.58
2023-03-10T09:45:45.232Z,0.80
2023-03-10T09:48:39.656Z,0.99
2023-03-10T09:51:16.232Z,0.61
2023-03-10T09:54:22.438Z,0.65
2023-03-10T09:57:15.306Z,0.83
2023-03-10T09:59:52.867Z,1.10
2023-03-10T10:02:28.417Z,0.91
2023-03-10T10:05:16.808Z,0.68
2023-03-10T10:07:52.561Z,0.58
2023-03-10T10:13:16.142Z,0.80
2023-03-10T10:15:51.263Z,0.76
2023-03-10T10:19:00.954Z,0.56
2023-03-10T10:22:02.705Z,0.82
2023-03-10T10:28:54.907Z,0.80
2023-03-10T10:32:00.374Z,0.74
2023-03-10T10:34:34.733Z,0.67
2023-03-10T10:37:09.870Z,0.83
2023-03-10T10:40:09.301Z,0.87
2023-03-10T10:42:53.247Z,1.19
2023-03-10T10:45:52.346Z,1.13
2023-03-10T10:48:48.990Z,1.03
2023-03-10T10:55:15.791Z,0.89
2023-03-10T11:02:14.912Z,0.89
2023-03-10T11:09:01.484Z,0.88
2023-03-10T11:11:57.659Z,0.79
2023-03-10T11:46:24.349Z,0.64
2023-03-10T12:15:58.303Z,0.32
2023-03-10T12:21:32.206Z,0.47
2023-03-10T12:30:57.119Z,0.44
2023-03-10T12:33:52.071Z,0.72
2023-03-10T12:36:44.718Z,0.50
2023-03-10T12:39:46.641Z,0.60
2023-03-10T12:42:45.870Z,0.63
2023-03-10T12:45:29.930Z,0.60
2023-03-10T12:48:08.190Z,0.59
2023-03-10T12:50:53.774Z,0.71
2023-03-10T12:53:37.310Z,0.86
2023-03-10T12:59:29.290Z,0.97
2023-03-10T13:02:16.316Z,0.86
2023-03-10T13:04:49.721Z,0.97
2023-03-10T13:07:27.025Z,0.79
2023-03-10T13:10:05.064Z,1.10
2023-03-10T13:12:39.659Z,0.90
2023-03-10T13:15:22.744Z,0.96
2023-03-10T13:17:54.759Z,0.76
2023-03-10T13:20:26.048Z,0.73
2023-03-10T13:23:04.363Z,0.85
2023-03-10T13:25:37.253Z,0.67
2023-03-10T13:28:17.312Z,0.80
2023-03-10T13:30:46.947Z,0.77
2023-03-10T13:36:34.193Z,0.89
2023-03-10T13:39:17.124Z,0.65
2023-03-10T13:42:42.947Z,0.83
2023-03-10T13:45:23.439Z,0.69
2023-03-10T13:47:54.415Z,0.74
2023-03-10T13:50:23.902Z,0.90
2023-03-10T13:53:00.143Z,0.64
2023-03-10T13:55:46.279Z,0.78
2023-03-10T13:58:23.514Z,0.74
2023-03-10T14:00:57.751Z,0.67
2023-03-10T14:03:36.328Z,0.75
2023-03-10T14:16:11.521Z,0.41
2023-03-10T14:23:06.011Z,0.67
2023-03-10T14:29:45.095Z,0.43
2023-03-10T14:32:45.992Z,0.45
2023-03-10T14:35:16.402Z,0.62
2023-03-10T14:37:48.928Z,0.48
2023-03-10T14:40:32.455Z,0.46
2023-03-10T14:46:56.435Z,0.49
2023-03-10T14:50:16.579Z,0.51
2023-03-10T15:36:04.324Z,0.39
2023-03-10T15:49:20.849Z,0.43
2023-03-10T16:06:31.553Z,0.27
2023-03-10T16:09:43.361Z,0.08
2023-03-10T16:12:54.676Z,0.10
2023-03-10T16:15:43.274Z,0.13
2023-03-10T16:18:15.749Z,-0.06
2023-03-10T16:20:56.751Z,0.12
2023-03-10T16:23:28.594Z,0.00
2023-03-10T16:26:08.669Z,0.00
2023-03-10T16:28:44.802Z,-0.05
2023-03-10T16:31:16.712Z,0.18
2023-03-10T16:33:50.994Z,0.03
2023-03-10T16:36:30.937Z,-0.02
2023-03-10T16:39:00.319Z,-0.13
2023-03-10T16:41:30.100Z,-0.17
2023-03-10T16:44:00.511Z,-0.06
2023-03-10T16:46:30.690Z,-0.13
2023-03-10T16:49:01.470Z,-0.21
2023-03-10T16:51:33.011Z,-0.16
2023-03-10T16:54:02.478Z,-0.11
2023-03-10T16:56:33.804Z,-0.02
2023-03-10T16:59:04.528Z,-0.10
2023-03-10T17:01:41.661Z,-0.15
2023-03-10T17:04:12.072Z,-0.17
2023-03-10T17:06:45.937Z,-0.14
2023-03-10T17:09:16.889Z,-0.08
2023-03-10T17:11:59.749Z,-0.10
2023-03-10T17:14:39.224Z,-0.10
2023-03-10T17:17:11.240Z,0.02
2023-03-10T17:19:44.357Z,0.03
2023-03-10T17:22:20.133Z,-0.08
2023-03-10T17:24:54.999Z,-0.08
2023-03-10T17:30:52.709Z,-0.12
2023-03-10T17:33:25.076Z,0.01
2023-03-10T17:36:09.031Z,-0.11
2023-03-10T17:38:45.692Z,-0.10
2023-03-10T17:41:18.274Z,0.03
2023-03-10T17:43:56.580Z,-0.14
2023-03-10T17:46:30.404Z,-0.01
2023-03-10T17:49:04.546Z,-0.07
2023-03-10T17:51:42.304Z,-0.12
2023-03-10T17:54:20.409Z,-0.17
2023-03-10T17:56:50.109Z,-0.13
2023-03-10T17:59:20.024Z,-0.14
2023-03-10T18:01:50.143Z,-0.02
2023-03-10T18:04:20.719Z,-0.06
2023-03-10T18:06:49.661Z,-0.06
2023-03-10T18:09:18.633Z,-0.11
2023-03-10T18:11:48.214Z,-0.20
2023-03-10T18:14:16.716Z,-0.16
2023-03-10T18:16:45.907Z,-0.16
2023-03-10T18:19:17.779Z,-0.12
2023-03-10T18:21:46.252Z,-0.19
2023-03-10T18:24:14.712Z,-0.07
2023-03-10T18:26:46.237Z,-0.12
2023-03-10T18:29:15.549Z,-0.13
2023-03-10T18:31:47.105Z,-0.18
2023-03-10T18:34:29.497Z,-0.01
2023-03-10T18:36:57.830Z,-0.07
2023-03-10T18:39:33.439Z,0.05
2023-03-10T18:42:02.113Z,0.00
2023-03-10T18:44:30.884Z,0.00
2023-03-10T18:47:01.848Z,-0.14
2023-03-10T18:49:33.658Z,-0.05
2023-03-10T18:52:05.737Z,0.12
2023-03-10T18:54:34.648Z,-0.11
2023-03-10T18:57:06.584Z,-0.01
2023-03-10T18:59:37.019Z,-0.08
2023-03-10T19:02:36.172Z,0.07
2023-03-10T19:05:15.537Z,-0.16
2023-03-10T19:07:52.536Z,-0.02
2023-03-10T19:11:00.327Z,0.06
2023-03-10T19:13:33.656Z,0.09
2023-03-10T19:16:19.536Z,-0.10
2023-03-10T19:19:00.114Z,-0.04
2023-03-10T19:21:53.666Z,-0.14
2023-03-10T19:24:27.605Z,-0.06
2023-03-10T19:26:56.869Z,0.02
2023-03-10T19:29:27.237Z,-0.07
2023-03-10T19:32:02.988Z,0.02
2023-03-10T19:34:32.217Z,-0.04
2023-03-10T19:37:02.990Z,-0.13
2023-03-10T19:39:32.167Z,-0.08
2023-03-10T19:42:05.038Z,0.04
2023-03-10T19:44:53.741Z,-0.01
2023-03-10T19:47:22.343Z,0.00
2023-03-10T19:50:27.032Z,-0.05
2023-03-10T19:53:25.161Z,0.04
2023-03-10T19:55:55.781Z,-0.01
2023-03-10T19:58:33.930Z,-0.19
2023-03-10T20:01:10.028Z,0.02
2023-03-10T20:03:41.444Z,-0.11
2023-03-10T20:06:12.148Z,-0.16
2023-03-10T20:08:47.244Z,-0.13
2023-03-10T20:11:19.557Z,-0.27
2023-03-10T20:13:58.692Z,-0.19
2023-03-10T20:16:29.669Z,-0.40
2023-03-10T20:19:01.609Z,-0.37
2023-03-10T20:21:34.902Z,-0.35
2023-03-10T20:24:09.445Z,-0.45
2023-03-10T20:26:42.858Z,-0.47
2023-03-10T20:29:16.060Z,-0.28
2023-03-10T20:31:58.603Z,-0.27
2023-03-10T20:34:34.803Z,-0.25
2023-03-10T20:37:09.371Z,-0.09
2023-03-10T20:39:44.542Z,-0.04
2023-03-10T20:42:34.975Z,-0.02
2023-03-10T20:45:10.633Z,-0.02
2023-03-10T20:47:40.641Z,-0.16
2023-03-10T20:50:12.923Z,0.01
2023-03-10T20:52:43.851Z,-0.10
2023-03-10T20:55:28.878Z,-0.06
2023-03-10T20:58:01.575Z,-0.05
2023-03-10T21:00:37.269Z,-0.04
2023-03-10T21:03:08.803Z,-0.18
2023-03-10T21:05:40.001Z,-0.18
2023-03-10T21:08:10.204Z,-0.32
2023-03-10T21:10:42.106Z,-0.12
2023-03-10T21:13:14.535Z,-0.10
2023-03-10T21:15:42.916Z,-0.14
2023-03-10T21:18:12.687Z,-0.13
2023-03-10T21:20:44.365Z,-0.13
2023-03-10T21:23:13.586Z,-0.26
2023-03-10T21:25:44.386Z,0.00
2023-03-10T21:28:15.349Z,-0.14
2023-03-10T21:30:45.106Z,-0.05
2023-03-10T21:33:15.991Z,-0.01
2023-03-10T21:35:46.479Z,-0.16
2023-03-10T21:38:22.049Z,0.02
2023-03-10T21:41:02.537Z,-0.08
2023-03-10T21:43:38.804Z,0.09
2023-03-10T21:46:10.284Z,-0.04
2023-03-10T21:48:43.858Z,-0.01
2023-03-10T21:51:16.884Z,0.06
2023-03-10T21:53:53.300Z,-0.14
2023-03-10T21:56:26.208Z,-0.12
2023-03-10T21:59:00.809Z,-0.10
2023-03-10T22:01:31.546Z,-0.18
2023-03-10T22:04:00.082Z,-0.42
2023-03-10T22:06:42.424Z,-0.29
2023-03-10T22:09:11.698Z,-0.18
2023-03-10T22:11:52.055Z,-0.10
2023-03-10T22:14:23.977Z,-0.26
2023-03-10T22:16:54.326Z,-0.10
2023-03-10T22:19:23.922Z,-0.27
2023-03-10T22:21:54.951Z,-0.12
2023-03-10T22:24:23.640Z,-0.06
2023-03-10T22:26:54.488Z,-0.19
2023-03-10T22:29:24.429Z,-0.09
2023-03-10T22:31:56.288Z,-0.29
2023-03-10T22:34:25.447Z,-0.16
2023-03-10T22:36:54.588Z,-0.14
2023-03-10T22:39:30.106Z,-0.09
2023-03-10T22:42:07.832Z,-0.15
2023-03-10T22:44:36.774Z,-0.05
2023-03-10T22:47:06.906Z,-0.02
2023-03-10T22:49:43.375Z,-0.06
2023-03-10T22:52:12.973Z,-0.01
2023-03-10T22:54:48.885Z,-0.05
2023-03-10T22:57:28.431Z,-0.07
2023-03-10T22:59:56.749Z,-0.06
2023-03-10T23:02:55.092Z,-0.14
2023-03-10T23:05:28.445Z,-0.39
2023-03-10T23:08:00.850Z,-0.43
2023-03-10T23:10:33.637Z,-0.47
2023-03-10T23:13:19.860Z,-0.68
2023-03-10T23:16:45.653Z,-0.78
2023-03-10T23:19:51.336Z,-0.75
2023-03-10T23:22:26.900Z,-0.82
2023-03-10T23:25:00.552Z,-0.68
2023-03-10T23:27:47.757Z,-0.50
2023-03-10T23:30:24.701Z,-0.54
2023-03-10T23:32:54.525Z,-0.39
2023-03-10T23:35:33.302Z,-0.45
2023-03-10T23:38:04.045Z,-0.37
2023-03-10T23:40:42.672Z,-0.47
2023-03-10T23:43:24.743Z,-0.40
2023-03-10T23:46:06.298Z,-0.60
2023-03-10T23:48:48.026Z,-0.58
2023-03-10T23:51:23.471Z,-0.45
2023-03-10T23:53:52.916Z,-0.55
2023-03-10T23:56:28.936Z,-0.45
2023-03-10T23:59:06.645Z,-0.53
